Time;durP1;ratioP1;P1;durP2;ratioP2;P2;SDS_P1;SDS_P2;PMS_P1;PMS_P2;Temp;Humidity;BMP_temperature;BMP_pressure;BME280_temperature;BME280_humidity;BME280_pressure;Samples;Min_cycle;Max_cycle;Signal;HPM_P1;HPM_P2
2021/10/06 00:01:38;;;;;;;6.32;2.63;;;;;;;;;;4975292;28;20711;-57
2021/10/06 00:04:04;;;;;;;6.10;2.58;;;;;;;;;;4999713;28;20018;-57
2021/10/06 00:06:29;;;;;;;8.00;3.25;;;;;;;;;;4995912;28;20144;-56
2021/10/06 00:08:54;;;;;;;6.30;2.70;;;;;;;;;;4999544;28;20376;-58
2021/10/06 00:11:20;;;;;;;7.30;3.33;;;;;;;;;;4998519;28;20041;-56
2021/10/06 00:13:46;;;;;;;6.78;3.08;;;;;;;;;;4993824;28;20036;-58
2021/10/06 00:16:12;;;;;;;7.50;3.80;;;;;;;;;;4995405;28;20032;-57
2021/10/06 00:18:38;;;;;;;9.32;3.53;;;;;;;;;;4944696;28;20033;-57
2021/10/06 00:21:03;;;;;;;6.68;3.38;;;;;;;;;;5005367;28;20053;-58
2021/10/06 00:23:30;;;;;;;7.97;3.00;;;;;;;;;;5004800;28;20014;-56
2021/10/06 00:25:55;;;;;;;6.97;2.90;;;;;;;;;;4999202;28;20071;-58
2021/10/06 00:28:20;;;;;;;6.53;3.15;;;;;;;;;;5000681;28;20026;-57
2021/10/06 00:30:46;;;;;;;6.53;2.80;;;;;;;;;;5019149;28;20052;-57
2021/10/06 00:33:11;;;;;;;6.18;2.70;;;;;;;;;;4925629;28;20042;-57
2021/10/06 00:35:37;;;;;;;6.97;2.90;;;;;;;;;;4993493;28;20022;-56
2021/10/06 00:38:02;;;;;;;6.88;3.05;;;;;;;;;;4997132;28;20034;-57
2021/10/06 00:40:27;;;;;;;9.20;2.90;;;;;;;;;;5009598;28;20038;-57
2021/10/06 00:42:52;;;;;;;5.93;2.67;;;;;;;;;;5000068;28;20033;-57
2021/10/06 00:45:18;;;;;;;7.97;3.13;;;;;;;;;;4994424;28;20490;-56
2021/10/06 00:47:44;;;;;;;6.43;3.38;;;;;;;;;;4995128;28;20114;-57
2021/10/06 00:50:10;;;;;;;6.47;3.00;;;;;;;;;;4985837;28;20030;-56
2021/10/06 00:52:35;;;;;;;6.95;3.13;;;;;;;;;;5001766;28;20030;-57
2021/10/06 00:55:00;;;;;;;7.03;3.47;;;;;;;;;;4996582;28;20018;-58
2021/10/06 00:57:25;;;;;;;7.45;3.40;;;;;;;;;;5002202;28;20026;-57
2021/10/06 00:59:51;;;;;;;7.63;3.72;;;;;;;;;;4996110;28;20033;-57
2021/10/06 01:02:16;;;;;;;7.75;3.50;;;;;;;;;;4999323;28;20683;-57
2021/10/06 01:04:42;;;;;;;8.15;3.75;;;;;;;;;;4984390;28;20036;-56
2021/10/06 01:07:07;;;;;;;8.63;3.58;;;;;;;;;;4996124;28;20022;-57
2021/10/06 01:09:32;;;;;;;9.15;4.03;;;;;;;;;;4998168;28;20500;-57
2021/10/06 01:11:58;;;;;;;7.30;3.43;;;;;;;;;;4999207;28;20026;-57
2021/10/06 01:14:24;;;;;;;7.50;3.47;;;;;;;;;;4998801;28;20265;-58
2021/10/06 01:16:50;;;;;;;5.72;3.30;;;;;;;;;;4999071;28;20044;-57
2021/10/06 01:19:23;;;;;;;5.85;3.30;;;;;;;;;;4993409;28;20026;-58
2021/10/06 01:21:49;;;;;;;6.43;3.22;;;;;;;;;;4993150;28;20149;-56
2021/10/06 01:24:15;;;;;;;5.68;3.30;;;;;;;;;;4995712;28;20060;-56
2021/10/06 01:26:40;;;;;;;5.53;3.03;;;;;;;;;;4998715;28;20117;-56
2021/10/06 01:29:05;;;;;;;5.95;3.38;;;;;;;;;;4996440;28;20026;-57
2021/10/06 01:31:31;;;;;;;6.83;3.37;;;;;;;;;;4999637;28;20494;-56
2021/10/06 01:33:56;;;;;;;7.80;3.25;;;;;;;;;;4999566;28;20764;-57
2021/10/06 01:36:21;;;;;;;7.30;3.25;;;;;;;;;;5011797;28;20111;-57
2021/10/06 01:38:47;;;;;;;7.95;3.05;;;;;;;;;;4993832;28;20084;-57
2021/10/06 01:41:12;;;;;;;7.28;2.83;;;;;;;;;;4998427;28;20027;-58
2021/10/06 01:43:37;;;;;;;8.70;3.05;;;;;;;;;;4997671;28;20708;-56
2021/10/06 01:46:03;;;;;;;6.22;2.90;;;;;;;;;;5000875;28;20020;-56
2021/10/06 01:48:28;;;;;;;6.35;2.80;;;;;;;;;;4992547;28;20381;-57
2021/10/06 01:50:53;;;;;;;6.22;2.80;;;;;;;;;;4997294;28;20788;-56
2021/10/06 01:53:19;;;;;;;6.88;2.92;;;;;;;;;;4994218;28;20033;-57
2021/10/06 01:55:44;;;;;;;6.80;2.80;;;;;;;;;;4995752;28;20033;-56
2021/10/06 01:58:11;;;;;;;4.85;2.53;;;;;;;;;;5004495;28;20302;-56
2021/10/06 02:00:37;;;;;;;5.53;2.58;;;;;;;;;;4991302;28;20109;-54
2021/10/06 02:03:02;;;;;;;4.85;2.20;;;;;;;;;;4998975;28;20040;-56
2021/10/06 02:05:27;;;;;;;4.95;2.10;;;;;;;;;;4996792;28;20030;-57
2021/10/06 02:07:53;;;;;;;5.68;2.58;;;;;;;;;;5008180;28;20480;-56
2021/10/06 02:10:18;;;;;;;9.57;2.30;;;;;;;;;;4995428;28;20037;-57
2021/10/06 02:12:43;;;;;;;4.95;2.47;;;;;;;;;;4999987;28;20401;-57
2021/10/06 02:15:09;;;;;;;5.85;2.40;;;;;;;;;;4999804;28;20548;-57
2021/10/06 02:17:34;;;;;;;5.32;2.05;;;;;;;;;;4997734;28;20014;-57
2021/10/06 02:19:59;;;;;;;6.18;2.40;;;;;;;;;;4998014;28;20783;-56
2021/10/06 02:22:25;;;;;;;4.95;2.38;;;;;;;;;;4985836;28;20022;-57
2021/10/06 02:24:50;;;;;;;6.47;2.53;;;;;;;;;;4996964;28;20018;-56
2021/10/06 02:27:15;;;;;;;5.75;2.47;;;;;;;;;;4996736;28;20862;-56
2021/10/06 02:29:40;;;;;;;4.75;2.33;;;;;;;;;;4996206;28;20026;-57
2021/10/06 02:32:06;;;;;;;6.32;2.35;;;;;;;;;;4994366;28;20385;-56
2021/10/06 02:34:31;;;;;;;6.10;2.00;;;;;;;;;;4994662;28;20030;-57
2021/10/06 02:36:56;;;;;;;5.50;2.38;;;;;;;;;;5001501;28;20275;-57
2021/10/06 02:39:22;;;;;;;5.10;2.10;;;;;;;;;;4991508;28;20125;-57
2021/10/06 02:41:47;;;;;;;4.53;1.88;;;;;;;;;;4993620;28;20053;-56
2021/10/06 02:44:12;;;;;;;4.65;1.92;;;;;;;;;;4998328;28;20022;-56
2021/10/06 02:46:38;;;;;;;5.50;1.90;;;;;;;;;;5008464;28;20022;-56
2021/10/06 02:49:03;;;;;;;4.50;1.80;;;;;;;;;;5015152;28;20060;-58
2021/10/06 02:51:28;;;;;;;4.40;1.70;;;;;;;;;;4997039;28;20022;-57
2021/10/06 02:53:53;;;;;;;3.90;1.75;;;;;;;;;;4997939;28;20087;-56
2021/10/06 02:56:19;;;;;;;6.35;1.90;;;;;;;;;;4997918;28;20025;-57
2021/10/06 02:58:44;;;;;;;6.15;1.60;;;;;;;;;;5012084;28;20534;-56
2021/10/06 03:01:09;;;;;;;4.90;1.70;;;;;;;;;;5000994;28;20030;-56
2021/10/06 03:03:35;;;;;;;4.22;1.70;;;;;;;;;;5013125;28;20034;-55
2021/10/06 03:06:00;;;;;;;4.60;1.80;;;;;;;;;;4997900;28;20018;-57
2021/10/06 03:08:25;;;;;;;4.43;1.70;;;;;;;;;;4999978;28;20022;-57
2021/10/06 03:10:51;;;;;;;6.05;1.40;;;;;;;;;;4995615;28;20293;-56
2021/10/06 03:13:16;;;;;;;5.38;1.58;;;;;;;;;;4993761;28;20024;-57
2021/10/06 03:15:43;;;;;;;4.30;1.50;;;;;;;;;;4996982;28;20123;-56
2021/10/06 03:18:10;;;;;;;3.88;1.60;;;;;;;;;;4999710;28;20046;-56
2021/10/06 03:20:36;;;;;;;7.65;1.83;;;;;;;;;;4993220;28;20425;-56
2021/10/06 03:23:08;;;;;;;4.68;1.45;;;;;;;;;;4994818;28;20080;-55
2021/10/06 03:25:33;;;;;;;6.63;1.65;;;;;;;;;;4999968;28;20545;-56
2021/10/06 03:27:58;;;;;;;5.43;1.90;;;;;;;;;;5003013;28;20113;-58
2021/10/06 03:30:23;;;;;;;4.67;1.67;;;;;;;;;;4993111;28;20045;-57
2021/10/06 03:32:49;;;;;;;4.55;1.60;;;;;;;;;;5000606;28;20265;-56
2021/10/06 03:35:18;;;;;;;4.55;1.73;;;;;;;;;;4997876;28;20093;-56
2021/10/06 03:37:44;;;;;;;5.38;1.80;;;;;;;;;;4995281;28;20014;-57
2021/10/06 03:40:09;;;;;;;5.35;2.17;;;;;;;;;;5000096;28;20152;-56
2021/10/06 03:42:35;;;;;;;4.47;2.05;;;;;;;;;;5001948;28;20032;-56
2021/10/06 03:45:00;;;;;;;4.80;2.10;;;;;;;;;;5002304;28;20040;-56
2021/10/06 03:47:25;;;;;;;7.30;2.07;;;;;;;;;;4997081;28;20021;-57
2021/10/06 03:49:50;;;;;;;5.07;2.20;;;;;;;;;;5001516;28;20284;-57
2021/10/06 03:52:16;;;;;;;4.97;2.17;;;;;;;;;;5009681;28;20087;-58
2021/10/06 03:54:41;;;;;;;4.57;2.22;;;;;;;;;;4988716;28;20033;-57
2021/10/06 03:57:06;;;;;;;5.65;2.03;;;;;;;;;;5005738;28;20022;-57
2021/10/06 03:59:32;;;;;;;4.50;1.77;;;;;;;;;;5017061;28;20034;-56
2021/10/06 04:01:57;;;;;;;4.77;1.90;;;;;;;;;;5004402;28;20269;-56
2021/10/06 04:04:22;;;;;;;6.73;2.23;;;;;;;;;;4993423;28;20862;-56
2021/10/06 04:06:47;;;;;;;5.15;2.00;;;;;;;;;;4997018;28;21124;-55
2021/10/06 04:09:13;;;;;;;4.07;1.70;;;;;;;;;;5002953;28;20018;-56
2021/10/06 04:11:38;;;;;;;6.27;2.00;;;;;;;;;;5000597;28;20277;-56
2021/10/06 04:14:03;;;;;;;4.50;1.55;;;;;;;;;;4998919;28;20771;-57
2021/10/06 04:16:29;;;;;;;6.20;1.65;;;;;;;;;;5000547;28;20014;-57
2021/10/06 04:18:54;;;;;;;5.13;1.85;;;;;;;;;;4998674;28;20021;-57
2021/10/06 04:21:20;;;;;;;5.25;1.42;;;;;;;;;;4994557;28;20378;-56
2021/10/06 04:23:46;;;;;;;4.10;1.60;;;;;;;;;;5018517;28;20112;-55
2021/10/06 04:26:11;;;;;;;4.55;1.67;;;;;;;;;;4999020;28;20148;-56
2021/10/06 04:28:36;;;;;;;4.35;1.67;;;;;;;;;;4995063;28;20021;-56
2021/10/06 04:31:02;;;;;;;4.03;1.90;;;;;;;;;;4989817;28;20069;-57
2021/10/06 04:33:27;;;;;;;4.35;1.60;;;;;;;;;;4994688;28;20140;-57
2021/10/06 04:35:52;;;;;;;4.82;1.90;;;;;;;;;;4997231;28;20022;-56
2021/10/06 04:38:18;;;;;;;4.95;1.90;;;;;;;;;;4994866;28;20028;-56
2021/10/06 04:40:43;;;;;;;4.63;1.88;;;;;;;;;;4993533;28;20526;-56
2021/10/06 04:43:10;;;;;;;5.82;2.10;;;;;;;;;;4997079;28;20080;-56
2021/10/06 04:45:35;;;;;;;6.03;2.42;;;;;;;;;;4998104;28;20018;-56
2021/10/06 04:48:00;;;;;;;7.03;2.10;;;;;;;;;;4997664;28;21782;-57
2021/10/06 04:50:29;;;;;;;4.77;2.10;;;;;;;;;;5001475;28;20029;-57
2021/10/06 04:52:54;;;;;;;5.83;2.20;;;;;;;;;;4999894;28;20295;-56
2021/10/06 04:55:20;;;;;;;4.90;1.95;;;;;;;;;;5008166;28;20432;-58
2021/10/06 04:57:45;;;;;;;5.67;1.90;;;;;;;;;;5007043;28;20080;-57
2021/10/06 05:00:10;;;;;;;5.18;1.90;;;;;;;;;;5002541;28;20273;-55
2021/10/06 05:02:36;;;;;;;5.00;1.92;;;;;;;;;;5002973;28;20036;-56
2021/10/06 05:05:01;;;;;;;4.35;1.35;;;;;;;;;;5002028;28;20049;-55
2021/10/06 05:07:26;;;;;;;6.77;1.80;;;;;;;;;;5002806;28;20032;-57
2021/10/06 05:09:51;;;;;;;5.28;1.70;;;;;;;;;;4996824;28;20380;-55
2021/10/06 05:12:17;;;;;;;3.83;1.50;;;;;;;;;;4997911;28;20038;-55
2021/10/06 05:14:42;;;;;;;4.80;1.40;;;;;;;;;;4999949;28;20108;-56
2021/10/06 05:17:08;;;;;;;4.15;1.45;;;;;;;;;;5000217;28;20958;-56
2021/10/06 05:19:33;;;;;;;5.22;1.60;;;;;;;;;;5015569;28;20034;-56
2021/10/06 05:21:58;;;;;;;4.57;1.40;;;;;;;;;;5004320;28;20025;-56
2021/10/06 05:24:24;;;;;;;3.30;1.17;;;;;;;;;;5016494;28;20044;-55
2021/10/06 05:26:49;;;;;;;3.97;1.17;;;;;;;;;;4998673;28;20623;-57
2021/10/06 05:29:14;;;;;;;3.78;1.40;;;;;;;;;;5000423;28;20096;-57
2021/10/06 05:31:41;;;;;;;3.05;1.27;;;;;;;;;;5000664;28;20017;-56
2021/10/06 05:34:07;;;;;;;3.78;1.10;;;;;;;;;;5008462;28;20014;-56
2021/10/06 05:36:32;;;;;;;2.80;0.80;;;;;;;;;;5009447;28;20030;-56
2021/10/06 05:38:57;;;;;;;3.88;1.02;;;;;;;;;;4996885;28;20021;-55
2021/10/06 05:41:23;;;;;;;3.88;0.80;;;;;;;;;;4999241;28;20033;-56
2021/10/06 05:43:48;;;;;;;2.38;0.70;;;;;;;;;;4997482;28;20029;-56
2021/10/06 05:46:13;;;;;;;2.72;0.80;;;;;;;;;;5003576;28;20010;-57
2021/10/06 05:48:39;;;;;;;3.92;0.80;;;;;;;;;;5001158;28;20022;-56
2021/10/06 05:51:04;;;;;;;1.75;0.60;;;;;;;;;;4986634;28;20030;-57
2021/10/06 05:53:29;;;;;;;2.22;0.85;;;;;;;;;;4997303;28;20099;-58
2021/10/06 05:55:54;;;;;;;2.42;0.77;;;;;;;;;;5001393;28;20022;-57
2021/10/06 05:58:20;;;;;;;2.00;0.70;;;;;;;;;;4999907;28;20663;-58
2021/10/06 06:00:45;;;;;;;1.10;0.38;;;;;;;;;;5021588;28;20256;-58
2021/10/06 06:03:11;;;;;;;2.03;0.63;;;;;;;;;;4998173;28;20509;-57
2021/10/06 06:05:40;;;;;;;3.03;0.60;;;;;;;;;;4995301;28;20456;-55
2021/10/06 06:08:05;;;;;;;4.50;0.55;;;;;;;;;;5002236;28;20084;-58
2021/10/06 06:10:31;;;;;;;3.15;0.60;;;;;;;;;;4994994;28;20680;-56
2021/10/06 06:12:56;;;;;;;2.03;0.60;;;;;;;;;;5013463;28;20057;-55
2021/10/06 06:15:21;;;;;;;4.05;0.50;;;;;;;;;;5003510;28;20814;-57
2021/10/06 06:17:46;;;;;;;1.83;0.50;;;;;;;;;;4995019;28;20033;-58
2021/10/06 06:20:13;;;;;;;3.47;0.65;;;;;;;;;;4997428;28;20030;-58
2021/10/06 06:22:39;;;;;;;1.58;0.30;;;;;;;;;;4992004;28;20016;-58
2021/10/06 06:25:05;;;;;;;2.03;0.80;;;;;;;;;;4990824;28;20474;-58
2021/10/06 06:27:30;;;;;;;2.50;0.30;;;;;;;;;;4999385;28;20022;-55
2021/10/06 06:29:56;;;;;;;0.40;0.20;;;;;;;;;;5000339;28;20037;-58
2021/10/06 06:32:21;;;;;;;1.00;0.30;;;;;;;;;;5000479;28;20021;-56
2021/10/06 06:34:46;;;;;;;1.37;0.33;;;;;;;;;;5005714;28;20038;-58
2021/10/06 06:37:11;;;;;;;3.30;0.55;;;;;;;;;;5004218;28;20642;-56
2021/10/06 06:39:37;;;;;;;2.23;0.40;;;;;;;;;;5003547;28;20017;-56
2021/10/06 06:42:02;;;;;;;0.67;0.30;;;;;;;;;;5003443;28;20265;-57
2021/10/06 06:44:27;;;;;;;1.27;0.40;;;;;;;;;;5003199;28;20348;-56
2021/10/06 06:46:52;;;;;;;0.85;0.28;;;;;;;;;;5015147;28;20144;-57
2021/10/06 06:49:18;;;;;;;0.45;0.17;;;;;;;;;;4997498;28;20492;-56
2021/10/06 06:51:43;;;;;;;0.70;0.28;;;;;;;;;;5008130;28;20022;-56
2021/10/06 06:54:08;;;;;;;3.43;0.43;;;;;;;;;;4995089;28;20076;-56
2021/10/06 06:56:38;;;;;;;0.47;0.20;;;;;;;;;;5002936;28;20272;-57
2021/10/06 06:59:04;;;;;;;0.55;0.20;;;;;;;;;;5005627;28;20619;-56
2021/10/06 07:01:29;;;;;;;1.38;0.30;;;;;;;;;;5012206;28;20022;-57
2021/10/06 07:03:55;;;;;;;1.48;0.40;;;;;;;;;;5007841;28;20026;-56
2021/10/06 07:06:20;;;;;;;6.03;0.73;;;;;;;;;;5005906;28;20026;-56
2021/10/06 07:08:48;;;;;;;1.75;0.40;;;;;;;;;;5002963;28;20037;-56
2021/10/06 07:11:13;;;;;;;1.10;0.20;;;;;;;;;;4999713;28;20030;-57
2021/10/06 07:13:38;;;;;;;1.10;0.20;;;;;;;;;;4999394;28;20045;-55
2021/10/06 07:16:04;;;;;;;4.57;1.38;;;;;;;;;;5011282;28;20022;-55
2021/10/06 07:18:29;;;;;;;3.78;1.20;;;;;;;;;;5002745;28;20055;-56
2021/10/06 07:20:54;;;;;;;3.25;0.55;;;;;;;;;;4997886;28;20026;-56
2021/10/06 07:23:21;;;;;;;2.13;0.40;;;;;;;;;;5007837;28;20021;-57
2021/10/06 07:25:46;;;;;;;1.85;0.30;;;;;;;;;;4997144;28;20265;-56
2021/10/06 07:28:11;;;;;;;2.17;0.60;;;;;;;;;;5000749;28;21220;-58
2021/10/06 07:30:37;;;;;;;2.75;0.35;;;;;;;;;;5017363;28;20025;-56
2021/10/06 07:33:02;;;;;;;0.77;0.20;;;;;;;;;;5000245;28;20557;-57
2021/10/06 07:35:27;;;;;;;1.63;0.40;;;;;;;;;;5006875;28;20264;-56
2021/10/06 07:37:52;;;;;;;1.80;0.60;;;;;;;;;;5000387;28;20287;-56
2021/10/06 07:40:18;;;;;;;1.88;0.60;;;;;;;;;;5002422;28;20029;-57
2021/10/06 07:42:43;;;;;;;2.97;0.73;;;;;;;;;;5005604;28;20025;-56
2021/10/06 07:45:09;;;;;;;1.92;0.70;;;;;;;;;;5009212;28;20339;-57
2021/10/06 07:47:34;;;;;;;1.75;0.40;;;;;;;;;;5003729;28;20018;-56
2021/10/06 07:49:59;;;;;;;1.08;0.32;;;;;;;;;;5007921;28;20025;-56
2021/10/06 07:52:25;;;;;;;1.08;0.30;;;;;;;;;;5001000;28;20026;-56
2021/10/06 07:54:51;;;;;;;0.80;0.25;;;;;;;;;;4991105;28;20483;-57
2021/10/06 07:57:16;;;;;;;1.58;0.25;;;;;;;;;;5002431;28;20076;-56
2021/10/06 07:59:41;;;;;;;1.33;0.30;;;;;;;;;;5006518;28;20049;-57
2021/10/06 08:02:07;;;;;;;3.80;0.30;;;;;;;;;;5001173;28;20097;-56
2021/10/06 08:04:32;;;;;;;1.27;0.38;;;;;;;;;;5002344;28;20318;-56
2021/10/06 08:06:57;;;;;;;0.80;0.30;;;;;;;;;;5004938;28;20009;-56
2021/10/06 08:09:23;;;;;;;0.93;0.20;;;;;;;;;;5000941;28;20079;-56
2021/10/06 08:11:48;;;;;;;2.78;0.40;;;;;;;;;;5005180;28;20257;-56
2021/10/06 08:14:13;;;;;;;0.82;0.35;;;;;;;;;;5002496;28;20071;-57
2021/10/06 08:16:39;;;;;;;1.35;0.40;;;;;;;;;;5001265;28;20018;-56
2021/10/06 08:19:05;;;;;;;1.10;0.30;;;;;;;;;;5008353;28;20064;-56
2021/10/06 08:21:30;;;;;;;3.08;0.25;;;;;;;;;;5015357;28;20030;-56
2021/10/06 08:23:55;;;;;;;1.52;0.30;;;;;;;;;;4998969;28;20484;-56
2021/10/06 08:26:20;;;;;;;1.53;0.33;;;;;;;;;;5004211;28;20037;-56
2021/10/06 08:28:46;;;;;;;1.17;0.40;;;;;;;;;;5006781;28;20021;-56
2021/10/06 08:31:11;;;;;;;1.70;0.50;;;;;;;;;;4998251;28;20277;-56
2021/10/06 08:33:36;;;;;;;2.38;0.70;;;;;;;;;;5009857;28;20287;-57
2021/10/06 08:36:02;;;;;;;2.05;0.75;;;;;;;;;;5005111;28;20101;-57
2021/10/06 08:38:27;;;;;;;1.15;0.30;;;;;;;;;;5007902;28;20032;-57
2021/10/06 08:40:52;;;;;;;1.02;0.30;;;;;;;;;;5007428;28;20021;-57
2021/10/06 08:43:18;;;;;;;0.98;0.30;;;;;;;;;;5003302;28;20035;-56
2021/10/06 08:45:44;;;;;;;0.93;0.20;;;;;;;;;;4997322;28;20014;-56
2021/10/06 08:48:09;;;;;;;1.50;0.30;;;;;;;;;;5008287;28;20465;-55
2021/10/06 08:50:36;;;;;;;1.17;0.30;;;;;;;;;;4998424;28;20032;-57
2021/10/06 08:53:01;;;;;;;1.75;0.45;;;;;;;;;;5005846;28;20539;-57
2021/10/06 08:55:29;;;;;;;0.65;0.30;;;;;;;;;;5001907;28;20025;-56
2021/10/06 08:57:58;;;;;;;2.40;0.20;;;;;;;;;;5001912;28;20034;-56
2021/10/06 09:00:24;;;;;;;2.10;0.43;;;;;;;;;;5004320;28;20029;-56
2021/10/06 09:02:50;;;;;;;1.75;0.40;;;;;;;;;;5007300;28;20270;-56
2021/10/06 09:05:18;;;;;;;1.92;0.50;;;;;;;;;;5007376;28;20021;-56
2021/10/06 09:07:58;;;;;;;3.03;0.30;;;;;;;;;;4996537;28;20022;-56
2021/10/06 09:10:24;;;;;;;2.47;0.40;;;;;;;;;;4995977;28;20061;-56
2021/10/06 09:12:53;;;;;;;0.40;0.20;;;;;;;;;;5008897;28;20013;-55
2021/10/06 09:15:18;;;;;;;0.43;0.20;;;;;;;;;;5003672;28;20022;-56
2021/10/06 09:17:50;;;;;;;1.77;0.40;;;;;;;;;;4998713;28;20071;-56
2021/10/06 09:20:15;;;;;;;1.15;0.30;;;;;;;;;;5001953;28;20017;-56
2021/10/06 09:22:46;;;;;;;0.95;0.20;;;;;;;;;;5002006;28;20057;-56
2021/10/06 09:25:11;;;;;;;1.38;0.35;;;;;;;;;;4997675;28;20064;-56
2021/10/06 09:27:38;;;;;;;2.25;0.32;;;;;;;;;;4992750;28;20132;-56
2021/10/06 09:30:09;;;;;;;1.35;0.30;;;;;;;;;;4998552;28;20088;-56
2021/10/06 09:32:35;;;;;;;1.13;0.30;;;;;;;;;;5009782;28;20030;-57
2021/10/06 09:35:04;;;;;;;1.00;0.30;;;;;;;;;;5002354;28;20077;-56
2021/10/06 09:37:29;;;;;;;1.05;0.30;;;;;;;;;;4990520;28;20033;-56
2021/10/06 09:39:55;;;;;;;1.13;0.40;;;;;;;;;;5000048;28;20034;-56
2021/10/06 09:42:21;;;;;;;1.48;0.30;;;;;;;;;;5004995;28;20432;-56
2021/10/06 09:44:54;;;;;;;3.00;0.40;;;;;;;;;;4995565;28;20022;-57
2021/10/06 09:47:19;;;;;;;0.93;0.40;;;;;;;;;;5000904;28;20551;-56
2021/10/06 09:49:51;;;;;;;2.20;0.70;;;;;;;;;;4995851;28;20101;-56
2021/10/06 09:52:21;;;;;;;2.35;0.60;;;;;;;;;;5004168;28;20481;-56
2021/10/06 09:54:47;;;;;;;;;;;;;;;;;;4996573;28;20028;-57
2021/10/06 09:57:20;;;;;;;1.75;0.52;;;;;;;;;;5008226;28;19909;-56
2021/10/06 09:59:45;;;;;;;1.42;0.35;;;;;;;;;;5017940;28;20056;-56
2021/10/06 10:02:11;;;;;;;1.30;0.40;;;;;;;;;;5001131;28;20026;-57
2021/10/06 10:04:36;;;;;;;1.38;0.47;;;;;;;;;;4998608;28;20268;-58
2021/10/06 10:07:01;;;;;;;1.17;0.35;;;;;;;;;;5009883;28;20017;-56
2021/10/06 10:09:27;;;;;;;1.08;0.30;;;;;;;;;;5008756;28;20052;-56
2021/10/06 10:11:53;;;;;;;1.65;0.40;;;;;;;;;;4998481;28;20022;-57
2021/10/06 10:14:19;;;;;;;0.95;0.30;;;;;;;;;;4994435;28;20473;-57
2021/10/06 10:16:44;;;;;;;0.82;0.28;;;;;;;;;;5002497;28;20029;-56
2021/10/06 10:19:10;;;;;;;1.02;0.30;;;;;;;;;;5009465;28;20021;-56
2021/10/06 10:21:41;;;;;;;4.85;0.40;;;;;;;;;;5005015;28;20114;-56
2021/10/06 10:24:07;;;;;;;1.00;0.20;;;;;;;;;;5002543;28;20661;-57
2021/10/06 10:26:33;;;;;;;1.08;0.30;;;;;;;;;;5000314;28;20014;-58
2021/10/06 10:28:58;;;;;;;1.75;0.40;;;;;;;;;;4996298;28;20575;-56
2021/10/06 10:31:23;;;;;;;1.45;0.40;;;;;;;;;;5003330;28;20133;-56
2021/10/06 10:33:51;;;;;;;1.63;0.40;;;;;;;;;;5006477;28;20025;-57
2021/10/06 10:36:37;;;;;;;1.40;0.30;;;;;;;;;;5006214;28;20015;-55
2021/10/06 10:39:03;;;;;;;0.50;0.20;;;;;;;;;;5003251;28;20109;-56
2021/10/06 10:41:47;;;;;;;1.70;0.30;;;;;;;;;;5003064;28;20084;-57
2021/10/06 10:44:22;;;;;;;2.47;0.50;;;;;;;;;;5013498;28;20033;-56
2021/10/06 10:46:57;;;;;;;0.88;0.25;;;;;;;;;;4921106;28;20026;-57
2021/10/06 10:49:23;;;;;;;1.63;0.40;;;;;;;;;;5007499;28;20080;-56
2021/10/06 10:51:53;;;;;;;2.38;0.65;;;;;;;;;;4994892;28;20025;-55
2021/10/06 10:54:27;;;;;;;3.20;0.40;;;;;;;;;;5006644;28;20050;-56
2021/10/06 10:56:53;;;;;;;1.45;0.43;;;;;;;;;;5007366;28;20454;-56
2021/10/06 10:59:22;;;;;;;5.43;0.30;;;;;;;;;;4999731;28;20030;-56
2021/10/06 11:01:52;;;;;;;1.10;0.20;;;;;;;;;;5010213;28;20025;-56
2021/10/06 11:04:25;;;;;;;1.55;0.40;;;;;;;;;;5001325;28;20029;-57
2021/10/06 11:06:52;;;;;;;1.00;0.40;;;;;;;;;;5002489;28;20050;-57
2021/10/06 11:09:29;;;;;;;1.33;0.35;;;;;;;;;;5001437;28;20025;-57
2021/10/06 11:12:15;;;;;;;1.10;0.28;;;;;;;;;;5001586;28;20384;-56
2021/10/06 11:14:41;;;;;;;0.85;0.32;;;;;;;;;;4993276;28;20036;-56
2021/10/06 11:17:11;;;;;;;1.30;0.30;;;;;;;;;;4998847;28;20603;-57
2021/10/06 11:19:55;;;;;;;1.00;0.20;;;;;;;;;;4995720;28;20483;-56
2021/10/06 11:22:23;;;;;;;0.90;0.20;;;;;;;;;;4998054;28;20087;-56
2021/10/06 11:24:49;;;;;;;1.65;0.30;;;;;;;;;;4997619;28;20021;-56
2021/10/06 11:27:14;;;;;;;0.30;0.10;;;;;;;;;;5005934;28;20029;-56
2021/10/06 11:29:43;;;;;;;0.90;0.28;;;;;;;;;;5003215;28;20517;-56
2021/10/06 11:32:08;;;;;;;0.68;0.30;;;;;;;;;;4997575;28;20010;-57
2021/10/06 11:34:43;;;;;;;1.92;0.32;;;;;;;;;;4935846;28;20018;-56
2021/10/06 11:37:13;;;;;;;0.50;0.28;;;;;;;;;;4996292;28;20018;-58
2021/10/06 11:39:38;;;;;;;0.47;0.20;;;;;;;;;;4999497;28;20024;-58
2021/10/06 11:42:04;;;;;;;1.17;0.20;;;;;;;;;;4999466;28;20026;-57
2021/10/06 11:44:30;;;;;;;1.38;0.35;;;;;;;;;;5008605;28;20344;-58
2021/10/06 11:46:57;;;;;;;2.03;0.60;;;;;;;;;;5009883;28;20734;-58
2021/10/06 11:49:26;;;;;;;0.70;0.30;;;;;;;;;;4942732;28;20568;-58
2021/10/06 11:51:51;;;;;;;2.38;0.60;;;;;;;;;;5008121;28;20021;-57
2021/10/06 11:54:17;;;;;;;0.93;0.20;;;;;;;;;;4998601;28;20125;-58
2021/10/06 11:56:43;;;;;;;0.30;0.10;;;;;;;;;;5008576;28;20021;-58
2021/10/06 11:59:13;;;;;;;0.93;0.30;;;;;;;;;;4999163;28;20477;-58
2021/10/06 12:01:38;;;;;;;;;;;;;;;;;;4999183;28;20028;-58
2021/10/06 12:04:12;;;;;;;2.13;0.30;;;;;;;;;;4987819;28;19906;-58
2021/10/06 12:06:38;;;;;;;0.25;0.10;;;;;;;;;;4959943;28;20708;-58
2021/10/06 12:09:08;;;;;;;0.95;0.30;;;;;;;;;;4996880;28;20033;-55
2021/10/06 12:11:35;;;;;;;0.68;0.20;;;;;;;;;;5004760;28;20765;-58
2021/10/06 12:14:15;;;;;;;1.45;0.40;;;;;;;;;;4998927;28;20560;-58
2021/10/06 12:16:40;;;;;;;1.65;0.35;;;;;;;;;;5002903;28;20022;-58
2021/10/06 12:19:06;;;;;;;1.02;0.20;;;;;;;;;;5002440;28;20022;-58
2021/10/06 12:21:32;;;;;;;2.17;0.25;;;;;;;;;;4976300;28;20657;-58
2021/10/06 12:24:01;;;;;;;1.38;0.20;;;;;;;;;;4996328;28;20026;-58
2021/10/06 12:26:27;;;;;;;;;;;;;;;;;;5002531;28;20029;-58
2021/10/06 12:28:57;;;;;;;0.83;0.23;;;;;;;;;;4998267;28;20349;-56
2021/10/06 12:31:24;;;;;;;0.25;0.10;;;;;;;;;;5000865;28;20362;-58
2021/10/06 12:33:49;;;;;;;0.10;0.10;;;;;;;;;;4997523;28;20017;-58
2021/10/06 12:36:15;;;;;;;0.10;0.10;;;;;;;;;;4940661;28;20041;-59
2021/10/06 12:38:40;;;;;;;0.50;0.20;;;;;;;;;;4997812;28;20021;-57
2021/10/06 12:41:14;;;;;;;2.60;0.15;;;;;;;;;;5003913;28;20399;-58
2021/10/06 12:43:43;;;;;;;0.38;0.10;;;;;;;;;;4997548;28;20056;-58
2021/10/06 12:46:21;;;;;;;0.20;0.10;;;;;;;;;;4997513;28;20028;-58
2021/10/06 12:48:49;;;;;;;3.00;0.20;;;;;;;;;;4999164;28;20014;-57
2021/10/06 12:51:18;;;;;;;0.65;0.20;;;;;;;;;;4992394;28;20033;-58
2021/10/06 12:53:44;;;;;;;;;;;;;;;;;;5006440;28;20033;-58
2021/10/06 12:56:21;;;;;;;0.73;0.17;;;;;;;;;;5005111;28;20235;-58
2021/10/06 12:58:54;;;;;;;2.10;0.30;;;;;;;;;;5000311;28;20323;-58
2021/10/06 13:01:19;;;;;;;1.55;0.30;;;;;;;;;;5004468;28;20025;-58
2021/10/06 13:03:45;;;;;;;0.77;0.20;;;;;;;;;;5004570;28;20079;-58
2021/10/06 13:06:10;;;;;;;0.40;0.10;;;;;;;;;;5002192;28;20276;-60
2021/10/06 13:08:35;;;;;;;0.82;0.17;;;;;;;;;;4997251;28;20994;-58
2021/10/06 13:11:00;;;;;;;1.73;0.30;;;;;;;;;;4996014;28;20760;-58
2021/10/06 13:13:26;;;;;;;2.40;0.25;;;;;;;;;;5010144;28;20033;-58
2021/10/06 13:15:51;;;;;;;0.80;0.23;;;;;;;;;;4986124;28;20119;-58
2021/10/06 13:18:16;;;;;;;0.30;0.10;;;;;;;;;;4989141;28;20299;-58
2021/10/06 13:20:42;;;;;;;0.97;0.20;;;;;;;;;;4995235;28;20047;-57
2021/10/06 13:23:07;;;;;;;1.23;0.25;;;;;;;;;;5005748;28;20021;-59
2021/10/06 13:25:32;;;;;;;1.15;0.20;;;;;;;;;;5017451;28;20108;-58
2021/10/06 13:27:57;;;;;;;0.60;0.10;;;;;;;;;;5005651;28;20452;-59
2021/10/06 13:30:23;;;;;;;0.30;0.10;;;;;;;;;;5009204;28;20274;-58
2021/10/06 13:32:48;;;;;;;1.50;0.30;;;;;;;;;;5009382;28;20260;-57
2021/10/06 13:35:13;;;;;;;0.30;0.20;;;;;;;;;;5014893;28;20766;-58
2021/10/06 13:37:38;;;;;;;0.43;0.13;;;;;;;;;;5003415;28;20594;-58
2021/10/06 13:40:04;;;;;;;0.50;0.20;;;;;;;;;;5003860;28;20261;-58
2021/10/06 13:42:30;;;;;;;1.75;0.20;;;;;;;;;;5006682;28;20739;-58
2021/10/06 13:44:55;;;;;;;0.88;0.25;;;;;;;;;;5001198;28;20662;-57
2021/10/06 13:47:21;;;;;;;1.10;0.30;;;;;;;;;;5010628;28;20025;-59
2021/10/06 13:49:46;;;;;;;1.02;0.30;;;;;;;;;;5004667;28;20037;-58
2021/10/06 13:52:11;;;;;;;0.93;0.30;;;;;;;;;;5005920;28;20020;-58
2021/10/06 13:54:36;;;;;;;1.27;0.30;;;;;;;;;;5005089;28;20120;-58
2021/10/06 13:57:02;;;;;;;1.17;0.30;;;;;;;;;;5012176;28;20080;-56
2021/10/06 13:59:27;;;;;;;0.85;0.20;;;;;;;;;;5002910;28;20022;-58
2021/10/06 14:01:52;;;;;;;0.43;0.20;;;;;;;;;;5002906;28;20031;-58
2021/10/06 14:04:18;;;;;;;1.37;0.43;;;;;;;;;;5009882;28;20424;-59
2021/10/06 14:06:43;;;;;;;1.15;0.35;;;;;;;;;;5007154;28;20245;-59
2021/10/06 14:09:08;;;;;;;0.40;0.20;;;;;;;;;;5009414;28;20018;-59
2021/10/06 14:11:33;;;;;;;1.23;0.30;;;;;;;;;;5003089;28;20339;-59
2021/10/06 14:13:59;;;;;;;0.90;0.30;;;;;;;;;;4999570;28;20269;-59
2021/10/06 14:16:24;;;;;;;1.05;0.17;;;;;;;;;;5004102;28;20029;-59
2021/10/06 14:18:49;;;;;;;1.25;0.30;;;;;;;;;;5005946;28;20097;-59
2021/10/06 14:21:15;;;;;;;1.67;0.30;;;;;;;;;;5006959;28;20054;-59
2021/10/06 14:23:41;;;;;;;2.00;0.25;;;;;;;;;;4998430;28;20028;-59
2021/10/06 14:26:06;;;;;;;0.50;0.10;;;;;;;;;;5012545;28;20080;-58
2021/10/06 14:28:31;;;;;;;1.25;0.22;;;;;;;;;;5006281;28;20277;-58
2021/10/06 14:30:57;;;;;;;0.93;0.20;;;;;;;;;;5010585;28;20029;-59
2021/10/06 14:33:23;;;;;;;0.68;0.20;;;;;;;;;;5006114;28;20026;-59
2021/10/06 14:35:48;;;;;;;1.80;0.25;;;;;;;;;;5004408;28;20025;-58
2021/10/06 14:38:13;;;;;;;1.77;0.30;;;;;;;;;;5000657;28;20028;-59